Time;durP1;ratioP1;P1;durP2;ratioP2;P2;SDS_P1;SDS_P2;PMS_P1;PMS_P2;Temp;Humidity;BMP_temperature;BMP_pressure;BME280_temperature;BME280_humidity;BME280_pressure;Samples;Min_cycle;Max_cycle;Signal;HPM_P1;HPM_P2
2022/10/11 00:02:23;;;;;;;2.42;1.90;;;16.50;60.90;;;;;;5051850;28;20175;-71
2022/10/11 00:04:51;;;;;;;2.50;2.00;;;16.50;60.80;;;;;;5052310;28;20167;-71
2022/10/11 00:07:18;;;;;;;3.22;1.95;;;16.50;60.80;;;;;;5051192;28;20321;-73
2022/10/11 00:09:43;;;;;;;3.25;2.00;;;16.50;60.80;;;;;;5052547;28;20202;-73
2022/10/11 00:12:09;;;;;;;3.25;2.08;;;16.50;60.80;;;;;;5051889;28;20207;-73
2022/10/11 00:14:34;;;;;;;4.07;2.03;;;16.50;60.70;;;;;;5051772;28;20210;-72
2022/10/11 00:17:00;;;;;;;3.45;2.03;;;16.50;60.70;;;;;;5052122;28;20171;-72
2022/10/11 00:19:25;;;;;;;4.38;2.53;;;16.40;60.60;;;;;;5052232;28;20257;-71
2022/10/11 00:21:51;;;;;;;1.98;1.75;;;16.40;60.70;;;;;;5051670;28;20541;-72
2022/10/11 00:24:16;;;;;;;3.08;1.88;;;16.50;60.60;;;;;;5050689;28;20550;-72
2022/10/11 00:26:42;;;;;;;3.90;1.98;;;16.40;60.60;;;;;;5052153;28;20685;-73
2022/10/11 00:29:08;;;;;;;2.55;1.98;;;16.40;60.60;;;;;;5051849;28;20266;-74
2022/10/11 00:31:33;;;;;;;3.42;2.08;;;16.40;60.60;;;;;;5052488;28;20506;-73
2022/10/11 00:33:59;;;;;;;2.70;1.60;;;16.40;60.60;;;;;;5052102;28;20707;-73
2022/10/11 00:36:24;;;;;;;2.38;1.90;;;16.40;60.60;;;;;;5051366;28;20638;-71
2022/10/11 00:38:50;;;;;;;3.20;2.33;;;16.40;60.50;;;;;;5052140;28;20179;-71
2022/10/11 00:41:15;;;;;;;3.20;2.20;;;16.40;60.60;;;;;;5051754;28;20249;-72
2022/10/11 00:43:41;;;;;;;4.18;2.10;;;16.40;60.40;;;;;;5051734;28;20183;-72
2022/10/11 00:46:16;;;;;;;3.33;2.20;;;16.40;60.60;;;;;;5051958;28;20615;-72
2022/10/11 00:48:46;;;;;;;2.88;2.10;;;16.40;60.40;;;;;;5052000;28;20193;-71
2022/10/11 00:51:22;;;;;;;2.90;1.90;;;16.40;60.50;;;;;;5033702;28;20175;-72
2022/10/11 00:53:48;;;;;;;3.47;2.10;;;16.40;60.50;;;;;;5052113;28;20179;-72
2022/10/11 00:56:31;;;;;;;3.15;1.95;;;16.40;60.40;;;;;;5054495;28;20178;-72
2022/10/11 00:58:57;;;;;;;1.95;1.70;;;16.40;60.40;;;;;;5055676;28;20171;-72
2022/10/11 01:01:22;;;;;;;2.65;2.00;;;16.30;60.40;;;;;;5037766;28;20182;-71
2022/10/11 01:03:48;;;;;;;3.85;2.60;;;16.30;60.40;;;;;;5054927;28;20536;-71
2022/10/11 01:06:14;;;;;;;4.10;1.90;;;16.30;60.40;;;;;;5055009;28;20677;-71
2022/10/11 01:08:40;;;;;;;3.13;1.85;;;16.30;60.30;;;;;;5054206;28;20179;-71
2022/10/11 01:11:05;;;;;;;2.25;1.80;;;16.30;60.30;;;;;;5036981;28;20187;-74
2022/10/11 01:14:03;;;;;;;2.72;1.85;;;16.30;60.30;;;;;;5037512;28;20175;-71
2022/10/11 01:16:34;;;;;;;2.85;2.05;;;16.30;60.30;;;;;;5054271;28;20545;-70
2022/10/11 01:19:44;;;;;;;3.17;1.70;;;16.30;60.30;;;;;;5053393;28;20256;-72
2022/10/11 01:22:41;;;;;;;2.65;1.83;;;16.30;60.30;;;;;;5040181;28;20632;-72
2022/10/11 01:25:47;;;;;;;2.58;1.80;;;16.30;60.20;;;;;;5054168;28;20175;-72
2022/10/11 01:28:43;;;;;;;4.00;1.90;;;16.30;60.20;;;;;;5053786;28;20203;-73
2022/10/11 01:31:30;;;;;;;2.75;2.05;;;16.30;60.20;;;;;;5055437;28;20187;-73
2022/10/11 01:34:05;;;;;;;2.20;2.00;;;16.30;60.10;;;;;;5038371;28;20175;-72
2022/10/11 01:36:50;;;;;;;3.00;2.05;;;16.20;60.10;;;;;;5037604;28;20171;-72
2022/10/11 01:39:28;;;;;;;2.33;2.00;;;16.30;60.10;;;;;;5053175;28;20174;-72
2022/10/11 01:41:55;;;;;;;2.05;1.70;;;16.30;60.10;;;;;;5053813;28;20175;-71
2022/10/11 01:44:22;;;;;;;2.95;2.03;;;16.20;60.00;;;;;;5037013;28;20171;-72
2022/10/11 01:46:47;;;;;;;2.22;1.67;;;16.20;60.00;;;;;;5036435;28;20226;-72
2022/10/11 01:49:13;;;;;;;2.47;2.05;;;16.30;60.10;;;;;;5053142;28;20258;-71
2022/10/11 01:51:40;;;;;;;3.30;1.88;;;16.30;60.10;;;;;;5054653;28;20258;-72
2022/10/11 01:54:24;;;;;;;3.22;2.08;;;16.20;59.90;;;;;;5036307;28;20186;-72
2022/10/11 01:57:19;;;;;;;3.15;2.10;;;16.20;59.90;;;;;;5054874;28;20166;-71
2022/10/11 02:00:02;;;;;;;2.38;2.08;;;16.20;60.80;;;;;;5052537;28;20194;-71
2022/10/11 02:02:59;;;;;;;3.88;1.92;;;16.20;59.90;;;;;;5054779;28;20192;-71
2022/10/11 02:05:34;;;;;;;2.10;1.90;;;16.20;59.90;;;;;;5054374;28;20266;-71
2022/10/11 02:08:35;;;;;;;2.20;1.85;;;16.20;59.90;;;;;;5036017;28;20234;-73
2022/10/11 02:11:08;;;;;;;2.45;2.03;;;16.20;59.90;;;;;;5053239;28;20232;-74
2022/10/11 02:13:35;;;;;;;2.03;1.63;;;16.20;59.90;;;;;;5053068;28;20175;-72
2022/10/11 02:16:02;;;;;;;1.80;1.50;;;16.20;59.90;;;;;;5052200;28;20179;-72
2022/10/11 02:18:31;;;;;;;2.80;2.00;;;16.10;59.80;;;;;;5036510;28;20637;-72
2022/10/11 02:20:56;;;;;;;2.85;1.45;;;16.20;59.90;;;;;;5051940;28;20186;-72
2022/10/11 02:23:35;;;;;;;3.30;2.08;;;16.10;59.80;;;;;;5053124;28;20172;-72
2022/10/11 02:26:02;;;;;;;2.85;1.60;;;16.10;59.80;;;;;;5052758;28;20247;-72
2022/10/11 02:28:30;;;;;;;2.90;1.65;;;16.10;59.80;;;;;;5052108;28;20582;-73
2022/10/11 02:30:55;;;;;;;3.92;1.85;;;16.10;59.90;;;;;;5036708;28;20211;-74
2022/10/11 02:33:25;;;;;;;1.98;1.65;;;16.10;59.80;;;;;;5036142;28;20211;-72
2022/10/11 02:35:54;;;;;;;1.90;1.67;;;16.10;59.80;;;;;;5052170;28;20257;-72
2022/10/11 02:38:22;;;;;;;1.70;1.60;;;16.10;59.70;;;;;;5036104;28;20261;-72
2022/10/11 02:40:54;;;;;;;2.65;1.80;;;16.10;59.80;;;;;;5036090;28;20578;-71
2022/10/11 02:43:29;;;;;;;2.88;2.08;;;16.10;59.70;;;;;;5035671;28;20174;-72
2022/10/11 02:46:00;;;;;;;3.08;1.77;;;16.10;59.70;;;;;;5052551;28;20235;-72
2022/10/11 02:48:28;;;;;;;1.90;1.70;;;16.10;59.70;;;;;;5036016;28;20214;-72
2022/10/11 02:50:54;;;;;;;2.75;1.70;;;16.00;60.40;;;;;;5035644;28;20179;-73
2022/10/11 02:53:20;;;;;;;2.17;1.70;;;16.10;59.60;;;;;;5053219;28;20649;-73
2022/10/11 02:55:49;;;;;;;2.55;1.77;;;16.10;59.70;;;;;;5053488;28;20171;-72
2022/10/11 02:58:15;;;;;;;2.55;1.80;;;16.10;59.60;;;;;;5034593;28;20373;-71
2022/10/11 03:00:40;;;;;;;2.65;1.50;;;16.10;59.60;;;;;;5053643;28;20288;-71
2022/10/11 03:03:06;;;;;;;3.53;1.95;;;16.10;59.70;;;;;;5052618;28;20394;-71
2022/10/11 03:05:36;;;;;;;2.40;1.80;;;16.00;59.60;;;;;;5053668;28;20700;-71
2022/10/11 03:08:01;;;;;;;3.67;2.10;;;16.00;59.60;;;;;;5052900;28;20227;-73
2022/10/11 03:10:27;;;;;;;1.98;1.65;;;16.00;59.60;;;;;;5052794;28;20182;-72
2022/10/11 03:12:52;;;;;;;2.10;1.90;;;16.00;59.50;;;;;;5053147;28;20202;-72
2022/10/11 03:15:18;;;;;;;2.50;1.48;;;16.00;59.50;;;;;;5053332;28;20552;-72
2022/10/11 03:17:43;;;;;;;2.72;1.60;;;16.00;59.50;;;;;;5052161;28;20618;-71
2022/10/11 03:20:09;;;;;;;2.25;1.65;;;16.00;59.50;;;;;;5053081;28;20638;-72
2022/10/11 03:22:35;;;;;;;1.70;1.60;;;16.00;59.50;;;;;;5053339;28;20664;-72
2022/10/11 03:25:00;;;;;;;3.00;1.70;;;16.00;59.50;;;;;;5052049;28;20179;-72
2022/10/11 03:27:26;;;;;;;1.63;1.48;;;16.00;59.50;;;;;;5052853;28;20214;-71
2022/10/11 03:29:51;;;;;;;2.33;1.67;;;16.00;59.50;;;;;;5053664;28;20177;-72
2022/10/11 03:32:17;;;;;;;1.52;1.42;;;16.00;59.50;;;;;;5052290;28;20178;-72
2022/10/11 03:34:42;;;;;;;2.05;1.55;;;16.00;59.50;;;;;;5053126;28;20179;-71
2022/10/11 03:37:08;;;;;;;1.77;1.50;;;16.00;59.50;;;;;;5052812;28;20261;-71
2022/10/11 03:39:33;;;;;;;1.80;1.40;;;16.00;59.40;;;;;;5052159;28;20269;-71
2022/10/11 03:41:59;;;;;;;1.80;1.55;;;16.00;59.40;;;;;;5052559;28;20175;-71
2022/10/11 03:44:25;;;;;;;2.10;1.42;;;15.90;59.40;;;;;;5053068;28;20645;-71
2022/10/11 03:46:50;;;;;;;2.53;1.52;;;15.90;59.40;;;;;;5051981;28;20681;-71
2022/10/11 03:49:16;;;;;;;2.13;1.63;;;15.90;59.40;;;;;;5052433;28;20205;-71
2022/10/11 03:51:41;;;;;;;2.22;1.65;;;15.90;59.30;;;;;;5052782;28;20175;-71
2022/10/11 03:54:07;;;;;;;2.17;1.40;;;15.90;59.40;;;;;;5051952;28;20250;-72
2022/10/11 03:56:32;;;;;;;2.38;1.60;;;15.90;59.40;;;;;;5052719;28;20179;-72
2022/10/11 03:58:58;;;;;;;1.90;1.50;;;15.90;59.40;;;;;;5052563;28;20178;-72
2022/10/11 04:01:23;;;;;;;2.33;1.50;;;15.90;59.30;;;;;;5052227;28;20744;-71
2022/10/11 04:03:49;;;;;;;1.85;1.60;;;15.90;59.30;;;;;;5052742;28;20650;-71
2022/10/11 04:06:15;;;;;;;2.65;1.70;;;15.90;59.30;;;;;;5051799;28;20637;-71
2022/10/11 04:08:40;;;;;;;4.07;1.80;;;15.90;59.30;;;;;;5052439;28;20214;-72
2022/10/11 04:11:06;;;;;;;3.03;1.60;;;15.90;59.30;;;;;;5052064;28;20653;-73
2022/10/11 04:13:31;;;;;;;2.75;1.52;;;15.90;59.30;;;;;;5051955;28;20187;-72
2022/10/11 04:15:57;;;;;;;2.90;1.55;;;15.90;59.40;;;;;;5052463;28;20196;-71
2022/10/11 04:18:22;;;;;;;2.35;1.60;;;15.90;59.30;;;;;;5052706;28;20171;-73
2022/10/11 04:20:48;;;;;;;2.53;1.33;;;15.90;59.30;;;;;;5051958;28;20573;-71
2022/10/11 04:23:13;;;;;;;2.25;1.70;;;15.90;59.30;;;;;;5052194;28;20175;-72
2022/10/11 04:25:39;;;;;;;1.50;1.40;;;15.90;59.30;;;;;;5052294;28;20190;-71
2022/10/11 04:28:06;;;;;;;2.05;1.45;;;15.90;59.30;;;;;;5051403;28;20215;-72
2022/10/11 04:30:32;;;;;;;1.90;1.40;;;15.90;59.30;;;;;;5056888;28;20175;-71
2022/10/11 04:32:57;;;;;;;2.33;1.40;;;15.90;59.30;;;;;;5056098;28;20185;-72
2022/10/11 04:35:23;;;;;;;2.17;1.55;;;15.80;59.30;;;;;;5055547;28;20258;-71
2022/10/11 04:37:48;;;;;;;2.05;1.52;;;15.90;59.40;;;;;;5056614;28;20262;-71
2022/10/11 04:40:14;;;;;;;3.45;1.30;;;15.90;59.30;;;;;;5056054;28;20179;-70
2022/10/11 04:42:39;;;;;;;1.80;1.40;;;15.90;59.30;;;;;;5055805;28;20178;-70
2022/10/11 04:45:05;;;;;;;1.92;1.48;;;15.80;59.30;;;;;;5056248;28;20171;-70
2022/10/11 04:47:31;;;;;;;1.30;1.23;;;15.80;59.30;;;;;;5056061;28;20723;-70
2022/10/11 04:49:56;;;;;;;1.98;1.40;;;15.80;59.30;;;;;;5055180;28;20203;-71
2022/10/11 04:52:22;;;;;;;1.90;1.40;;;15.80;59.30;;;;;;5056475;28;20262;-73
2022/10/11 04:54:47;;;;;;;1.65;1.50;;;15.80;59.30;;;;;;5056212;28;20257;-71
2022/10/11 04:57:13;;;;;;;1.45;1.20;;;15.80;59.30;;;;;;5055286;28;20171;-74
2022/10/11 04:59:38;;;;;;;2.00;1.60;;;15.80;59.30;;;;;;5056182;28;20316;-71
2022/10/11 05:02:04;;;;;;;1.55;1.40;;;15.80;59.30;;;;;;5055907;28;20210;-73
2022/10/11 05:04:29;;;;;;;1.63;1.30;;;15.80;59.40;;;;;;5055311;28;20275;-70
2022/10/11 05:06:55;;;;;;;2.45;1.70;;;15.80;59.40;;;;;;5055681;28;20713;-71
2022/10/11 05:09:20;;;;;;;1.50;1.33;;;15.80;59.20;;;;;;5055566;28;20583;-73
2022/10/11 05:11:46;;;;;;;2.90;1.33;;;15.90;59.20;;;;;;5055328;28;20198;-72
2022/10/11 05:14:11;;;;;;;3.13;1.63;;;15.90;59.10;;;;;;5055572;28;20653;-71
2022/10/11 05:16:37;;;;;;;2.55;1.77;;;16.00;58.80;;;;;;5055086;28;20171;-71
2022/10/11 05:19:03;;;;;;;2.92;1.60;;;16.10;58.80;;;;;;5055552;28;20168;-70
2022/10/11 05:21:29;;;;;;;1.48;1.38;;;16.10;58.60;;;;;;5055624;28;20509;-71
2022/10/11 05:23:55;;;;;;;1.83;1.52;;;16.10;58.60;;;;;;5054850;28;20182;-71
2022/10/11 05:26:20;;;;;;;2.08;1.55;;;16.10;58.50;;;;;;5055455;28;20186;-71
2022/10/11 05:28:47;;;;;;;2.22;1.33;;;16.10;58.40;;;;;;5055620;28;20552;-72
2022/10/11 05:31:13;;;;;;;2.90;1.40;;;16.10;58.60;;;;;;5054934;28;20254;-72
2022/10/11 05:33:38;;;;;;;3.03;1.63;;;16.10;58.70;;;;;;5055492;28;20207;-72
2022/10/11 05:36:05;;;;;;;1.70;1.45;;;16.00;58.70;;;;;;5055421;28;20176;-72
2022/10/11 05:38:33;;;;;;;2.00;1.60;;;16.00;58.90;;;;;;5054345;28;20182;-71
2022/10/11 05:41:00;;;;;;;1.50;1.40;;;16.00;59.00;;;;;;5054644;28;20163;-72
2022/10/11 05:43:26;;;;;;;2.00;1.75;;;16.00;59.10;;;;;;5055441;28;20183;-70
2022/10/11 05:45:51;;;;;;;3.05;1.63;;;16.00;59.10;;;;;;5054672;28;20179;-71
2022/10/11 05:48:17;;;;;;;2.60;1.85;;;16.00;59.00;;;;;;5054964;28;20703;-72
2022/10/11 05:50:42;;;;;;;1.92;1.50;;;16.00;59.00;;;;;;5055291;28;20535;-72
2022/10/11 05:53:08;;;;;;;3.03;1.90;;;15.90;59.00;;;;;;5053975;28;20205;-72
2022/10/11 05:55:38;;;;;;;2.10;1.58;;;15.90;59.00;;;;;;5055200;28;20529;-72
2022/10/11 05:58:03;;;;;;;2.45;2.25;;;15.90;59.10;;;;;;5054774;28;20175;-72
2022/10/11 06:00:29;;;;;;;3.53;1.90;;;15.90;59.20;;;;;;5054389;28;20171;-71
2022/10/11 06:02:54;;;;;;;2.50;2.00;;;15.90;59.30;;;;;;5054940;28;20179;-71
2022/10/11 06:05:20;;;;;;;1.70;1.60;;;15.90;59.30;;;;;;5054477;28;20167;-72
2022/10/11 06:07:45;;;;;;;2.50;1.90;;;15.80;59.20;;;;;;5053711;28;20235;-73
2022/10/11 06:10:11;;;;;;;3.13;1.75;;;15.90;58.80;;;;;;5054317;28;20649;-73
2022/10/11 06:12:37;;;;;;;2.92;1.90;;;16.00;58.70;;;;;;5054608;28;20213;-73
2022/10/11 06:15:03;;;;;;;2.45;2.05;;;16.10;58.60;;;;;;5053769;28;20175;-72
2022/10/11 06:17:29;;;;;;;1.90;1.70;;;16.30;59.10;;;;;;5054749;28;20183;-72
2022/10/11 06:19:54;;;;;;;1.60;1.50;;;16.50;58.20;;;;;;5054030;28;20186;-73
2022/10/11 06:22:20;;;;;;;1.77;1.60;;;16.70;57.90;;;;;;5054155;28;20740;-72
2022/10/11 06:24:45;;;;;;;3.17;1.90;;;16.90;57.50;;;;;;5054637;28;20574;-73
2022/10/11 06:27:11;;;;;;;2.85;1.60;;;17.10;57.10;;;;;;5053535;28;20210;-72
2022/10/11 06:29:36;;;;;;;1.83;1.70;;;17.30;56.70;;;;;;5054609;28;20261;-77
2022/10/11 06:32:02;;;;;;;2.42;1.50;;;17.50;56.80;;;;;;5054077;28;20236;-73
2022/10/11 06:34:28;;;;;;;3.03;1.70;;;17.70;55.60;;;;;;5052796;28;20183;-73
2022/10/11 06:36:53;;;;;;;2.72;1.70;;;17.90;55.30;;;;;;5054049;28;20608;-75
2022/10/11 06:39:19;;;;;;;2.70;1.52;;;18.00;55.00;;;;;;5053779;28;20701;-71
2022/10/11 06:41:44;;;;;;;4.38;1.70;;;18.10;55.00;;;;;;5052042;28;20270;-72
2022/10/11 06:44:10;;;;;;;2.95;1.75;;;18.10;54.80;;;;;;5054022;28;20175;-71
2022/10/11 06:46:36;;;;;;;2.55;2.00;;;18.20;54.20;;;;;;5054184;28;20186;-68
2022/10/11 06:49:02;;;;;;;7.53;1.95;;;18.20;53.90;;;;;;5053112;28;20540;-70
2022/10/11 06:51:28;;;;;;;3.72;1.92;;;18.40;53.90;;;;;;5053189;28;20246;-70
2022/10/11 06:53:56;;;;;;;3.60;1.70;;;18.50;53.80;;;;;;5054096;28;20189;-71
2022/10/11 06:56:22;;;;;;;5.90;2.10;;;18.60;53.60;;;;;;5053159;28;20195;-70
2022/10/11 06:58:49;;;;;;;4.20;1.77;;;18.60;53.60;;;;;;5053713;28;20179;-70
2022/10/11 07:01:17;;;;;;;5.13;1.92;;;18.50;53.50;;;;;;5053339;28;20179;-71
2022/10/11 07:03:42;;;;;;;6.75;2.08;;;18.50;53.70;;;;;;5052929;28;20538;-71
2022/10/11 07:06:11;;;;;;;3.53;2.00;;;18.40;53.80;;;;;;5052946;28;20179;-71
2022/10/11 07:08:37;;;;;;;5.10;1.80;;;18.20;54.00;;;;;;5053643;28;20294;-71
2022/10/11 07:11:04;;;;;;;3.35;1.98;;;18.30;54.20;;;;;;5052523;28;20602;-71
2022/10/11 07:13:30;;;;;;;2.40;1.60;;;18.30;54.30;;;;;;5053461;28;20629;-70
2022/10/11 07:15:56;;;;;;;5.45;2.00;;;18.40;54.40;;;;;;5053703;28;20171;-70
2022/10/11 07:18:22;;;;;;;4.75;1.65;;;18.40;54.50;;;;;;5052832;28;20548;-68
2022/10/11 07:20:48;;;;;;;2.67;1.70;;;18.40;54.40;;;;;;5053254;28;20262;-69
2022/10/11 07:23:13;;;;;;;2.47;1.98;;;18.40;54.60;;;;;;5051300;28;20321;-69
2022/10/11 07:25:39;;;;;;;2.58;2.05;;;18.20;54.50;;;;;;5052962;28;20182;-70
2022/10/11 07:28:04;;;;;;;5.88;2.15;;;18.20;54.60;;;;;;5052876;28;20219;-69
2022/10/11 07:30:30;;;;;;;3.50;1.67;;;18.10;54.80;;;;;;5066184;28;20166;-70
2022/10/11 07:32:55;;;;;;;2.65;1.83;;;18.10;55.00;;;;;;5073382;28;20186;-68
2022/10/11 07:35:21;;;;;;;2.63;1.80;;;18.10;55.10;;;;;;5072701;28;20641;-69
2022/10/11 07:37:46;;;;;;;2.08;1.80;;;18.00;55.10;;;;;;5072366;28;20178;-68
2022/10/11 07:40:12;;;;;;;4.50;1.95;;;18.00;55.30;;;;;;5072971;28;20170;-69
2022/10/11 07:42:38;;;;;;;2.00;1.65;;;18.10;55.30;;;;;;5054392;28;20225;-68
2022/10/11 07:45:03;;;;;;;1.98;1.80;;;18.10;55.20;;;;;;5051970;28;20177;-69
2022/10/11 07:47:29;;;;;;;1.67;1.58;;;18.10;55.30;;;;;;5053135;28;20219;-69
2022/10/11 07:49:54;;;;;;;3.85;2.03;;;18.10;55.30;;;;;;5052857;28;20178;-69
2022/10/11 07:52:20;;;;;;;2.90;1.88;;;18.00;55.20;;;;;;5052089;28;20175;-69
2022/10/11 07:54:48;;;;;;;1.95;1.60;;;18.00;55.40;;;;;;5053101;28;20198;-69
2022/10/11 07:57:14;;;;;;;2.38;1.90;;;18.00;55.50;;;;;;5052525;28;20645;-69
2022/10/11 07:59:40;;;;;;;4.88;2.00;;;18.00;55.60;;;;;;5052300;28;20203;-69
2022/10/11 08:02:09;;;;;;;2.83;1.80;;;18.00;55.70;;;;;;5052477;28;20179;-68
2022/10/11 08:04:35;;;;;;;2.80;1.75;;;18.00;55.60;;;;;;5035337;28;20182;-68
2022/10/11 08:07:00;;;;;;;5.75;1.85;;;18.00;55.60;;;;;;5051479;28;20230;-70
2022/10/11 08:09:26;;;;;;;5.10;1.73;;;18.00;55.70;;;;;;5052901;28;20175;-69
2022/10/11 08:11:52;;;;;;;2.08;1.52;;;18.00;55.70;;;;;;5052777;28;20179;-70
2022/10/11 08:14:17;;;;;;;1.70;1.48;;;18.00;55.80;;;;;;5051945;28;20171;-68
2022/10/11 08:16:43;;;;;;;2.53;1.95;;;17.90;55.80;;;;;;5052902;28;20175;-68
2022/10/11 08:19:09;;;;;;;2.70;1.92;;;18.00;55.90;;;;;;5052277;28;20533;-68
2022/10/11 08:21:34;;;;;;;2.75;2.13;;;18.00;55.90;;;;;;5051882;28;20641;-69
2022/10/11 08:24:01;;;;;;;2.47;1.58;;;18.10;55.90;;;;;;5052478;28;20187;-69
2022/10/11 08:26:26;;;;;;;2.88;1.52;;;18.10;55.80;;;;;;5052856;28;20260;-68
2022/10/11 08:28:52;;;;;;;3.38;2.00;;;18.10;55.80;;;;;;5051748;28;20290;-69
2022/10/11 08:31:17;;;;;;;2.50;2.28;;;18.10;55.80;;;;;;5072290;28;20185;-69
2022/10/11 08:33:43;;;;;;;2.72;2.00;;;18.10;55.90;;;;;;5071927;28;20632;-69
2022/10/11 08:36:08;;;;;;;2.72;1.60;;;18.10;55.90;;;;;;5072451;28;20201;-68
2022/10/11 08:38:37;;;;;;;1.80;1.48;;;18.10;56.00;;;;;;5071470;28;20174;-68
2022/10/11 08:41:09;;;;;;;2.75;1.70;;;18.10;56.10;;;;;;5066047;28;20535;-69
2022/10/11 08:43:44;;;;;;;1.95;1.85;;;18.20;56.10;;;;;;5035461;28;20695;-68
2022/10/11 08:46:10;;;;;;;2.17;1.98;;;18.20;55.90;;;;;;5050771;28;20190;-69
2022/10/11 08:48:39;;;;;;;3.22;1.88;;;18.30;56.00;;;;;;5034025;28;20199;-68
2022/10/11 08:51:32;;;;;;;1.90;1.50;;;18.20;56.00;;;;;;5034486;28;20642;-68
2022/10/11 08:53:59;;;;;;;3.08;1.60;;;18.20;56.00;;;;;;5051096;28;20249;-69
2022/10/11 08:56:24;;;;;;;3.42;1.73;;;18.10;56.10;;;;;;5051777;28;20175;-69
2022/10/11 08:59:11;;;;;;;1.55;1.45;;;18.10;56.20;;;;;;5034505;28;20179;-68
2022/10/11 09:01:45;;;;;;;1.83;1.40;;;18.10;56.30;;;;;;5051849;28;20535;-67
2022/10/11 09:04:14;;;;;;;4.55;1.80;;;18.10;56.40;;;;;;5034608;28;20398;-69
2022/10/11 09:06:49;;;;;;;5.22;1.95;;;18.10;56.50;;;;;;5052050;28;20175;-67
2022/10/11 09:09:30;;;;;;;3.28;1.60;;;18.20;56.70;;;;;;5033623;28;20167;-68
2022/10/11 09:12:08;;;;;;;3.45;1.90;;;18.10;56.60;;;;;;5052013;28;20183;-68
2022/10/11 09:14:38;;;;;;;3.55;1.67;;;18.10;56.70;;;;;;5051390;28;20219;-67
2022/10/11 09:17:13;;;;;;;2.42;1.75;;;18.10;56.90;;;;;;5053019;28;20538;-67
2022/10/11 09:20:00;;;;;;;2.75;1.60;;;18.10;56.90;;;;;;5055674;28;20174;-68
2022/10/11 09:23:04;;;;;;;2.30;1.63;;;18.10;57.00;;;;;;5055703;28;20189;-68
2022/10/11 09:25:32;;;;;;;2.30;1.40;;;18.10;57.00;;;;;;5057218;28;20227;-69
2022/10/11 09:28:37;;;;;;;3.30;1.85;;;18.10;57.00;;;;;;5058359;28;20210;-68
2022/10/11 09:31:02;;;;;;;3.85;2.13;;;18.10;57.00;;;;;;5069835;28;20177;-69
2022/10/11 09:33:43;;;;;;;2.58;1.90;;;18.20;57.00;;;;;;5067190;28;20168;-69
2022/10/11 09:36:14;;;;;;;3.17;1.50;;;18.20;57.00;;;;;;5038005;28;20296;-68
2022/10/11 09:38:47;;;;;;;2.80;1.75;;;18.20;57.10;;;;;;5053667;28;20266;-68
2022/10/11 09:41:30;;;;;;;2.83;1.80;;;18.20;57.10;;;;;;5054906;28;20190;-68
2022/10/11 09:43:55;;;;;;;4.20;2.15;;;18.20;57.10;;;;;;5073349;28;20180;-67
2022/10/11 09:46:33;;;;;;;4.05;1.70;;;18.20;57.20;;;;;;5075071;28;20261;-68
2022/10/11 09:48:58;;;;;;;2.58;1.80;;;18.20;57.20;;;;;;5075003;28;20261;-68
2022/10/11 09:51:24;;;;;;;2.80;1.40;;;18.20;57.20;;;;;;5056725;28;20167;-68
2022/10/11 09:53:54;;;;;;;3.50;1.58;;;18.20;57.20;;;;;;5057455;28;20253;-68
2022/10/11 09:56:20;;;;;;;2.55;1.85;;;18.20;57.30;;;;;;5074917;28;20171;-68
2022/10/11 09:58:46;;;;;;;2.63;1.55;;;18.20;57.30;;;;;;5067503;28;20180;-69
2022/10/11 10:01:20;;;;;;;2.58;1.42;;;18.20;57.30;;;;;;5053049;28;20501;-68
2022/10/11 10:03:46;;;;;;;3.67;2.03;;;18.30;57.40;;;;;;5054938;28;20206;-69
2022/10/11 10:06:15;;;;;;;1.83;1.50;;;18.30;57.40;;;;;;5035993;28;20622;-70
2022/10/11 10:08:42;;;;;;;2.45;1.73;;;18.30;57.40;;;;;;5054079;28;20265;-70
2022/10/11 10:11:08;;;;;;;3.90;1.63;;;18.30;57.40;;;;;;5054392;28;20179;-69
2022/10/11 10:13:53;;;;;;;4.18;1.92;;;18.30;57.40;;;;;;5052967;28;20236;-68
2022/10/11 10:16:29;;;;;;;2.00;1.77;;;18.30;57.40;;;;;;5053039;28;20645;-69
2022/10/11 10:19:06;;;;;;;2.80;1.83;;;18.30;57.50;;;;;;5053652;28;20257;-69
2022/10/11 10:21:43;;;;;;;4.68;2.13;;;18.30;57.50;;;;;;5053683;28;20160;-69
2022/10/11 10:24:37;;;;;;;3.30;1.88;;;18.30;57.60;;;;;;5036004;28;20177;-70
2022/10/11 10:27:06;;;;;;;4.60;1.65;;;18.30;57.60;;;;;;5050572;28;20223;-72
2022/10/11 10:29:32;;;;;;;4.07;1.90;;;18.40;57.60;;;;;;5059990;28;20175;-71
2022/10/11 10:32:00;;;;;;;3.15;1.33;;;18.40;57.60;;;;;;5072749;28;20178;-71
2022/10/11 10:34:36;;;;;;;4.25;1.52;;;18.30;57.60;;;;;;5037785;28;20183;-71
2022/10/11 10:37:21;;;;;;;3.25;1.48;;;18.40;57.70;;;;;;5052863;28;20174;-71
2022/10/11 10:39:59;;;;;;;6.10;1.92;;;18.40;57.70;;;;;;5053302;28;20174;-70
2022/10/11 10:42:25;;;;;;;2.63;1.60;;;18.40;57.70;;;;;;5038609;28;20179;-71
2022/10/11 10:44:52;;;;;;;3.40;1.80;;;18.40;57.70;;;;;;5036279;28;20205;-70
2022/10/11 10:47:40;;;;;;;3.20;1.85;;;18.40;57.70;;;;;;5052024;28;20210;-70
2022/10/11 10:50:10;;;;;;;1.73;1.40;;;18.40;57.70;;;;;;5036671;28;20198;-72
2022/10/11 10:52:39;;;;;;;5.55;2.10;;;18.40;57.70;;;;;;5053020;28;20194;-73
2022/10/11 10:55:23;;;;;;;5.30;1.85;;;18.50;57.80;;;;;;5053113;28;20167;-74
2022/10/11 10:57:56;;;;;;;3.35;1.60;;;18.40;57.80;;;;;;5053954;28;20209;-71
2022/10/11 11:00:22;;;;;;;3.42;1.63;;;18.50;57.80;;;;;;5052835;28;20175;-71
2022/10/11 11:02:52;;;;;;;4.57;1.92;;;18.50;57.80;;;;;;5035495;28;20171;-71
2022/10/11 11:05:47;;;;;;;3.90;1.85;;;18.50;57.80;;;;;;5052386;28;20234;-71
2022/10/11 11:08:26;;;;;;;3.78;1.58;;;18.50;57.80;;;;;;5051896;28;20736;-72
2022/10/11 11:11:19;;;;;;;5.57;1.65;;;18.60;57.80;;;;;;5037444;28;20185;-71
2022/10/11 11:14:38;;;;;;;3.83;2.05;;;18.60;57.80;;;;;;5053503;28;20186;-71
2022/10/11 11:17:28;;;;;;;5.20;1.80;;;18.60;57.80;;;;;;5018703;28;20171;-71
2022/10/11 11:20:02;;;;;;;3.38;1.60;;;18.60;57.70;;;;;;5052365;28;20226;-71
2022/10/11 11:22:33;;;;;;;3.50;1.50;;;18.60;58.30;;;;;;5051515;28;20629;-71
2022/10/11 11:25:02;;;;;;;3.65;1.70;;;18.70;57.70;;;;;;5052952;28;20654;-71
2022/10/11 11:27:58;;;;;;;3.83;1.58;;;18.70;57.60;;;;;;5051965;28;20733;-71
2022/10/11 11:30:28;;;;;;;4.03;1.63;;;18.70;57.60;;;;;;5059778;28;20217;-71
2022/10/11 11:33:04;;;;;;;3.17;1.77;;;18.70;57.60;;;;;;5051910;28;20175;-68
2022/10/11 11:35:37;;;;;;;4.70;1.63;;;18.70;57.50;;;;;;5052241;28;20170;-71
2022/10/11 11:38:24;;;;;;;2.65;1.60;;;18.70;57.50;;;;;;5050447;28;20696;-70
2022/10/11 11:40:55;;;;;;;5.30;1.80;;;18.70;57.50;;;;;;5041720;28;20555;-71
2022/10/11 11:43:25;;;;;;;4.80;2.22;;;18.70;57.50;;;;;;5051432;28;20725;-70
2022/10/11 11:45:54;;;;;;;6.70;2.05;;;18.60;57.60;;;;;;5034966;28;20175;-71
2022/10/11 11:48:23;;;;;;;3.75;1.80;;;18.50;57.80;;;;;;5035246;28;20214;-70
2022/10/11 11:51:05;;;;;;;2.90;1.80;;;18.40;58.00;;;;;;5052332;28;20175;-70
2022/10/11 11:53:43;;;;;;;3.83;1.75;;;18.40;58.10;;;;;;5051739;28;20178;-71
2022/10/11 11:56:16;;;;;;;3.22;1.20;;;18.40;58.20;;;;;;5051628;28;20188;-71
2022/10/11 11:59:02;;;;;;;5.03;1.95;;;18.20;58.20;;;;;;5050983;28;20178;-71
2022/10/11 12:01:43;;;;;;;3.13;1.52;;;18.20;58.30;;;;;;5037879;28;20177;-71
2022/10/11 12:04:28;;;;;;;2.95;1.42;;;18.10;58.40;;;;;;5035654;28;20179;-70
2022/10/11 12:07:13;;;;;;;3.03;1.60;;;18.10;58.50;;;;;;5034930;28;20254;-71
2022/10/11 12:09:40;;;;;;;3.03;1.70;;;18.10;58.60;;;;;;5051747;28;20179;-71
2022/10/11 12:12:30;;;;;;;4.43;1.60;;;18.10;58.60;;;;;;5034231;28;20657;-71
2022/10/11 12:15:22;;;;;;;3.80;1.70;;;18.00;58.60;;;;;;5052963;28;20197;-71
2022/10/11 12:17:56;;;;;;;2.85;1.40;;;18.00;58.60;;;;;;5036097;28;20202;-71
2022/10/11 12:20:36;;;;;;;2.08;1.15;;;18.00;58.70;;;;;;5051857;28;20200;-71
2022/10/11 12:23:17;;;;;;;3.65;1.70;;;18.00;58.70;;;;;;5035233;28;20634;-71
2022/10/11 12:25:43;;;;;;;3.03;1.60;;;17.90;58.70;;;;;;5052035;28;20177;-71
2022/10/11 12:28:40;;;;;;;3.25;1.52;;;17.90;58.70;;;;;;5052443;28;20203;-71
2022/10/11 12:31:20;;;;;;;4.13;1.30;;;17.90;58.70;;;;;;5070731;28;20667;-71
2022/10/11 12:33:46;;;;;;;2.47;1.35;;;17.90;58.70;;;;;;5072152;28;20178;-71
2022/10/11 12:36:32;;;;;;;5.90;1.50;;;17.90;58.60;;;;;;5072244;28;20174;-71
2022/10/11 12:39:46;;;;;;;3.15;1.52;;;18.00;58.40;;;;;;5071195;28;20182;-71
2022/10/11 12:42:29;;;;;;;5.20;2.25;;;18.10;58.60;;;;;;5055061;28;20215;-71
2022/10/11 12:45:13;;;;;;;4.93;1.30;;;18.20;58.10;;;;;;5051272;28;20646;-70
2022/10/11 12:47:58;;;;;;;2.30;1.75;;;18.20;58.10;;;;;;5051625;28;20405;-70
2022/10/11 12:50:26;;;;;;;4.05;1.77;;;18.20;58.10;;;;;;5039308;28;20262;-71
2022/10/11 12:53:17;;;;;;;3.72;1.45;;;18.20;58.10;;;;;;5056482;28;20174;-71
2022/10/11 12:55:51;;;;;;;3.97;1.35;;;18.20;58.20;;;;;;5054302;28;20574;-71
2022/10/11 12:58:21;;;;;;;2.47;1.52;;;18.30;58.20;;;;;;5054523;28;20572;-71
2022/10/11 13:00:49;;;;;;;3.80;1.40;;;18.20;58.00;;;;;;5054922;28;20225;-71
2022/10/11 13:03:41;;;;;;;1.90;1.20;;;18.10;58.10;;;;;;5056056;28;20521;-70
2022/10/11 13:06:26;;;;;;;2.38;1.40;;;18.10;58.30;;;;;;5039979;28;20175;-70
2022/10/11 13:09:16;;;;;;;2.60;1.20;;;18.10;58.40;;;;;;5038253;28;20761;-71